Time;durP1;ratioP1;P1;durP2;ratioP2;P2;SDS_P1;SDS_P2;PMS_P1;PMS_P2;Temp;Humidity;BMP_temperature;BMP_pressure;BME280_temperature;BME280_humidity;BME280_pressure;Samples;Min_cycle;Max_cycle;Signal;HPM_P1;HPM_P2
2022/09/14 00:00:01;;;;;;;19.10;13.50;;;17.10;89.60;;;;;;4983653;28;20588;-72
2022/09/14 00:02:26;;;;;;;19.95;13.27;;;17.10;89.50;;;;;;4982982;28;20054;-74
2022/09/14 00:04:53;;;;;;;18.02;13.70;;;17.10;89.60;;;;;;4981427;28;20442;-71
2022/09/14 00:07:18;;;;;;;20.45;13.65;;;17.10;89.70;;;;;;4984079;28;20504;-73
2022/09/14 00:09:44;;;;;;;22.63;14.60;;;17.10;89.80;;;;;;4980782;28;20399;-72
2022/09/14 00:12:10;;;;;;;20.35;14.88;;;17.10;89.80;;;;;;4983549;28;20138;-72
2022/09/14 00:14:36;;;;;;;22.92;14.60;;;17.10;89.80;;;;;;4983812;28;20057;-72
2022/09/14 00:17:02;;;;;;;19.50;14.60;;;17.10;89.70;;;;;;4980779;28;20364;-72
2022/09/14 00:19:27;;;;;;;22.27;15.13;;;17.20;89.70;;;;;;4984096;28;20580;-72
2022/09/14 00:21:55;;;;;;;22.80;14.88;;;17.10;89.70;;;;;;4986018;28;20261;-72
2022/09/14 00:24:22;;;;;;;19.70;14.02;;;17.10;89.80;;;;;;4989323;28;21089;-72
2022/09/14 00:26:49;;;;;;;21.73;13.38;;;17.10;89.80;;;;;;4982038;28;20051;-72
2022/09/14 00:29:15;;;;;;;18.65;14.15;;;17.10;89.80;;;;;;4986209;28;20080;-71
2022/09/14 00:31:40;;;;;;;20.17;14.48;;;17.00;89.90;;;;;;4982395;28;20034;-72
2022/09/14 00:34:10;;;;;;;19.50;13.55;;;17.00;89.90;;;;;;4986523;28;20035;-72
2022/09/14 00:36:46;;;;;;;18.42;13.93;;;17.00;90.10;;;;;;4986313;28;20108;-72
2022/09/14 00:39:12;;;;;;;21.83;13.85;;;17.00;90.10;;;;;;4979722;28;20077;-72
2022/09/14 00:41:41;;;;;;;20.45;13.95;;;17.00;90.10;;;;;;4988669;28;20056;-72
2022/09/14 00:44:26;;;;;;;26.50;14.25;;;17.00;90.20;;;;;;4981991;28;20089;-71
2022/09/14 00:46:55;;;;;;;21.95;15.05;;;17.00;90.30;;;;;;4985031;28;20125;-71
2022/09/14 00:49:23;;;;;;;25.80;15.07;;;16.90;90.20;;;;;;4983709;28;20121;-72
2022/09/14 00:51:57;;;;;;;20.45;14.50;;;16.90;90.40;;;;;;4990469;28;20057;-71
2022/09/14 00:54:23;;;;;;;19.40;14.40;;;16.80;90.50;;;;;;4982403;28;20038;-72
2022/09/14 00:56:50;;;;;;;19.45;13.80;;;16.90;90.60;;;;;;4984797;28;20138;-72
2022/09/14 00:59:22;;;;;;;20.38;14.52;;;16.90;90.50;;;;;;4983258;28;20118;-72
2022/09/14 01:01:48;;;;;;;20.63;13.65;;;16.90;90.40;;;;;;4984194;28;20035;-72
2022/09/14 01:04:13;;;;;;;20.70;13.70;;;16.80;90.50;;;;;;4982640;28;20034;-71
2022/09/14 01:06:52;;;;;;;22.00;15.13;;;16.90;90.50;;;;;;4995078;28;20049;-71
2022/09/14 01:09:21;;;;;;;20.55;13.77;;;16.90;90.40;;;;;;4995644;28;20031;-72
2022/09/14 01:12:19;;;;;;;18.33;13.50;;;16.90;90.40;;;;;;4986733;28;20038;-72
2022/09/14 01:15:03;;;;;;;18.38;13.55;;;16.80;90.50;;;;;;4974715;28;20467;-72
2022/09/14 01:18:02;;;;;;;21.75;13.35;;;16.90;90.60;;;;;;4982896;28;20380;-71
2022/09/14 01:20:36;;;;;;;23.65;13.85;;;16.90;90.40;;;;;;4980954;28;20104;-71
2022/09/14 01:23:28;;;;;;;20.05;13.13;;;16.90;90.30;;;;;;4984284;28;20455;-72
2022/09/14 01:26:19;;;;;;;17.95;13.07;;;16.90;90.40;;;;;;4958214;28;20419;-71
2022/09/14 01:29:22;;;;;;;20.77;13.05;;;16.80;90.30;;;;;;4961745;28;20038;-72
2022/09/14 01:32:00;;;;;;;17.92;13.05;;;16.70;90.60;;;;;;4959853;28;20446;-72
2022/09/14 01:34:35;;;;;;;21.70;13.43;;;16.80;90.50;;;;;;4965463;28;20128;-71
2022/09/14 01:37:11;;;;;;;18.27;13.23;;;16.80;90.50;;;;;;4963038;28;20089;-74
2022/09/14 01:39:41;;;;;;;22.15;14.00;;;16.80;90.40;;;;;;4966908;28;20047;-71
2022/09/14 01:42:10;;;;;;;22.75;14.27;;;16.70;90.60;;;;;;4964739;28;20126;-72
2022/09/14 01:44:40;;;;;;;19.98;13.68;;;16.70;90.60;;;;;;4969094;28;20041;-71
2022/09/14 01:47:25;;;;;;;22.75;14.23;;;16.70;90.70;;;;;;4967606;28;20129;-72
2022/09/14 01:50:17;;;;;;;19.52;14.00;;;16.70;90.60;;;;;;4980829;28;20034;-71
2022/09/14 01:52:47;;;;;;;18.95;13.73;;;16.70;90.80;;;;;;4980748;28;20086;-72
2022/09/14 01:55:38;;;;;;;19.10;14.07;;;16.70;90.70;;;;;;4980907;28;20050;-72
2022/09/14 01:58:10;;;;;;;19.77;14.35;;;16.60;90.70;;;;;;4984099;28;20038;-72
2022/09/14 02:00:40;;;;;;;18.83;14.25;;;16.60;90.90;;;;;;4972970;28;20043;-72
2022/09/14 02:03:28;;;;;;;23.10;14.45;;;16.60;90.90;;;;;;4980974;28;20038;-71
2022/09/14 02:06:10;;;;;;;20.48;14.23;;;16.60;91.20;;;;;;4980392;28;20042;-71
2022/09/14 02:08:37;;;;;;;17.77;14.43;;;16.60;91.00;;;;;;4992628;28;20039;-72
2022/09/14 02:11:02;;;;;;;19.23;14.63;;;16.60;91.20;;;;;;4985392;28;20081;-71
2022/09/14 02:13:28;;;;;;;22.70;15.65;;;16.50;91.10;;;;;;4987550;28;20054;-72
2022/09/14 02:15:54;;;;;;;21.73;15.05;;;16.50;91.30;;;;;;4984050;28;20038;-71
2022/09/14 02:18:21;;;;;;;19.90;14.02;;;16.50;91.20;;;;;;4986339;28;20046;-71
2022/09/14 02:21:12;;;;;;;21.13;15.32;;;16.50;91.40;;;;;;4987156;28;20507;-72
2022/09/14 02:23:37;;;;;;;22.40;15.00;;;16.60;91.50;;;;;;4988675;28;20437;-72
2022/09/14 02:26:04;;;;;;;19.50;14.98;;;16.60;91.40;;;;;;4983107;28;20030;-71
2022/09/14 02:28:29;;;;;;;22.50;15.85;;;16.50;91.30;;;;;;4989330;28;20058;-72
2022/09/14 02:31:17;;;;;;;25.17;16.30;;;16.50;91.30;;;;;;4987092;28;20121;-71
2022/09/14 02:34:14;;;;;;;20.33;15.52;;;16.50;91.60;;;;;;4965562;28;20050;-71
2022/09/14 02:37:19;;;;;;;21.55;15.60;;;16.50;91.60;;;;;;4967060;28;20049;-71
2022/09/14 02:40:00;;;;;;;21.15;15.93;;;16.50;91.60;;;;;;4984032;28;20034;-71
2022/09/14 02:42:49;;;;;;;19.25;15.30;;;16.50;91.60;;;;;;4972112;28;20581;-72
2022/09/14 02:45:52;;;;;;;24.27;15.30;;;16.50;91.40;;;;;;4973542;28;20046;-72
2022/09/14 02:48:39;;;;;;;22.27;16.05;;;16.50;91.30;;;;;;4981530;28;20038;-73
2022/09/14 02:51:30;;;;;;;27.98;16.55;;;16.40;91.50;;;;;;4986904;28;20117;-71
2022/09/14 02:54:23;;;;;;;19.15;16.40;;;16.40;91.50;;;;;;4983966;28;20065;-72
2022/09/14 02:56:49;;;;;;;20.80;16.83;;;16.40;91.60;;;;;;4966967;28;20039;-72
2022/09/14 02:59:15;;;;;;;22.23;17.40;;;16.40;91.60;;;;;;4983613;28;20031;-73
2022/09/14 03:01:41;;;;;;;20.35;16.63;;;16.40;91.50;;;;;;4985440;28;20049;-73
2022/09/14 03:04:06;;;;;;;22.48;17.00;;;16.30;91.50;;;;;;4985590;28;20415;-72
2022/09/14 03:06:32;;;;;;;21.33;16.90;;;16.30;91.70;;;;;;4984798;28;20536;-72
2022/09/14 03:08:58;;;;;;;24.42;17.75;;;16.30;91.80;;;;;;4984390;28;20035;-73
2022/09/14 03:11:23;;;;;;;24.88;18.42;;;16.30;91.80;;;;;;4983626;28;20038;-73
2022/09/14 03:13:49;;;;;;;25.15;18.02;;;16.30;91.80;;;;;;4985946;28;20058;-73
2022/09/14 03:16:16;;;;;;;24.00;18.95;;;16.30;91.90;;;;;;4984329;28;20056;-72
2022/09/14 03:18:42;;;;;;;23.65;18.92;;;16.20;91.90;;;;;;4986014;28;20042;-72
2022/09/14 03:21:10;;;;;;;30.45;19.05;;;16.20;92.00;;;;;;4984455;28;20100;-71
2022/09/14 03:23:44;;;;;;;23.23;18.35;;;16.10;92.10;;;;;;4985077;28;20042;-71
2022/09/14 03:26:12;;;;;;;25.48;20.27;;;16.10;92.30;;;;;;4987311;28;20110;-71
2022/09/14 03:28:38;;;;;;;22.95;18.95;;;16.10;92.10;;;;;;4981931;28;20034;-71
2022/09/14 03:31:06;;;;;;;26.75;19.58;;;16.20;92.30;;;;;;4984307;28;20145;-72
2022/09/14 03:33:32;;;;;;;25.33;19.65;;;16.10;92.20;;;;;;4983386;28;20121;-72
2022/09/14 03:35:58;;;;;;;26.27;20.10;;;16.10;92.30;;;;;;4987230;28;20502;-72
2022/09/14 03:38:26;;;;;;;28.38;21.05;;;16.10;92.10;;;;;;4980398;28;20053;-72
2022/09/14 03:40:52;;;;;;;31.38;21.50;;;16.10;92.30;;;;;;4983170;28;21098;-72
2022/09/14 03:43:18;;;;;;;28.42;23.42;;;16.10;92.50;;;;;;4984672;28;20062;-72
2022/09/14 03:45:44;;;;;;;29.33;23.15;;;16.00;92.60;;;;;;4983583;28;20038;-72
2022/09/14 03:48:10;;;;;;;29.63;23.35;;;15.90;92.70;;;;;;4985781;28;20120;-72
2022/09/14 03:50:37;;;;;;;30.25;24.27;;;15.90;92.90;;;;;;4984380;28;20034;-72
2022/09/14 03:53:03;;;;;;;31.23;25.38;;;15.90;92.80;;;;;;4983346;28;20387;-72
2022/09/14 03:55:29;;;;;;;32.03;26.35;;;15.90;93.00;;;;;;4987412;28;20042;-72
2022/09/14 03:57:55;;;;;;;33.17;27.02;;;15.90;93.00;;;;;;4986308;28;20039;-72
2022/09/14 04:00:22;;;;;;;28.95;24.77;;;15.90;93.00;;;;;;4983527;28;20038;-72
2022/09/14 04:02:47;;;;;;;30.58;26.88;;;15.90;93.20;;;;;;4982523;28;20042;-72
2022/09/14 04:05:13;;;;;;;32.22;25.35;;;15.90;93.10;;;;;;4979559;28;20037;-72
2022/09/14 04:07:38;;;;;;;33.97;27.20;;;15.90;93.00;;;;;;4965164;28;20089;-72
2022/09/14 04:10:06;;;;;;;33.38;26.92;;;15.90;93.10;;;;;;4964315;28;20058;-72
2022/09/14 04:12:38;;;;;;;29.83;26.63;;;15.90;93.10;;;;;;4978940;28;20308;-73
2022/09/14 04:15:05;;;;;;;35.60;27.98;;;16.00;93.00;;;;;;4958900;28;20050;-72
2022/09/14 04:17:31;;;;;;;31.10;27.75;;;15.90;93.00;;;;;;4960063;28;20452;-71
2022/09/14 04:19:57;;;;;;;35.03;29.77;;;15.90;92.90;;;;;;4962467;28;20042;-72
2022/09/14 04:22:23;;;;;;;35.90;31.58;;;15.90;92.90;;;;;;4962352;28;20113;-72
2022/09/14 04:24:49;;;;;;;36.08;29.80;;;15.80;93.10;;;;;;4957754;28;20039;-72
2022/09/14 04:27:14;;;;;;;34.50;30.95;;;15.80;93.20;;;;;;4954299;28;20035;-71
2022/09/14 04:29:40;;;;;;;35.28;30.70;;;15.90;93.30;;;;;;4954659;28;20038;-72
2022/09/14 04:32:06;;;;;;;33.85;30.15;;;15.80;93.30;;;;;;4951822;28;20141;-73
2022/09/14 04:34:31;;;;;;;37.70;31.25;;;15.80;93.50;;;;;;4955535;28;20031;-72
2022/09/14 04:36:57;;;;;;;35.58;31.55;;;15.80;93.60;;;;;;4953882;28;20082;-72
2022/09/14 04:39:23;;;;;;;40.40;30.65;;;15.80;93.60;;;;;;4964038;28;20374;-72
2022/09/14 04:41:48;;;;;;;40.67;33.08;;;15.80;93.60;;;;;;4973442;28;20379;-73
2022/09/14 04:44:14;;;;;;;38.40;32.55;;;15.80;93.60;;;;;;4982212;28;20018;-71
2022/09/14 04:46:41;;;;;;;38.60;31.63;;;15.70;93.70;;;;;;4973543;28;20774;-72
2022/09/14 04:49:07;;;;;;;36.40;31.15;;;15.70;93.80;;;;;;4975874;28;20117;-71
2022/09/14 04:51:35;;;;;;;37.65;30.85;;;15.70;93.90;;;;;;4976070;28;20043;-72
2022/09/14 04:54:02;;;;;;;36.33;30.55;;;15.70;93.80;;;;;;4980188;28;20038;-71
2022/09/14 04:56:31;;;;;;;35.78;31.02;;;15.70;93.90;;;;;;4981999;28;20030;-70
2022/09/14 04:58:59;;;;;;;38.95;32.28;;;15.70;93.70;;;;;;4965203;28;20051;-72
2022/09/14 05:01:30;;;;;;;36.30;31.27;;;15.70;93.80;;;;;;4955231;28;20588;-72
2022/09/14 05:03:56;;;;;;;39.17;31.67;;;15.70;93.90;;;;;;4980169;28;20200;-73
2022/09/14 05:06:24;;;;;;;35.42;31.73;;;15.60;93.70;;;;;;4951062;28;20070;-72
2022/09/14 05:08:51;;;;;;;36.45;31.63;;;15.70;93.80;;;;;;4955356;28;20043;-72
2022/09/14 05:11:19;;;;;;;35.05;31.27;;;15.70;93.80;;;;;;4954184;28;20050;-72
2022/09/14 05:13:45;;;;;;;35.60;30.55;;;15.60;93.70;;;;;;4968063;28;20043;-72
2022/09/14 05:16:23;;;;;;;36.00;31.40;;;15.70;93.80;;;;;;4952882;28;20037;-72
2022/09/14 05:18:50;;;;;;;34.80;29.98;;;15.70;93.70;;;;;;4952526;28;20432;-72
2022/09/14 05:21:18;;;;;;;33.63;30.25;;;15.70;93.60;;;;;;4967508;28;20093;-73
2022/09/14 05:23:45;;;;;;;33.95;30.13;;;15.70;93.60;;;;;;4976805;28;20410;-72
2022/09/14 05:26:11;;;;;;;34.88;31.13;;;15.70;93.60;;;;;;4976789;28;20121;-72
2022/09/14 05:28:37;;;;;;;35.35;30.08;;;15.60;93.70;;;;;;4973524;28;20037;-71
2022/09/14 05:31:04;;;;;;;36.38;30.92;;;15.60;93.70;;;;;;4974885;28;20043;-73
2022/09/14 05:33:30;;;;;;;37.08;31.38;;;15.60;93.70;;;;;;4975972;28;20046;-72
2022/09/14 05:36:05;;;;;;;33.38;29.15;;;15.60;93.80;;;;;;4980677;28;20637;-73
2022/09/14 05:38:32;;;;;;;41.08;32.47;;;15.60;93.90;;;;;;4980373;28;20042;-72
2022/09/14 05:40:58;;;;;;;36.88;30.92;;;15.60;93.80;;;;;;4983636;28;20034;-72
2022/09/14 05:43:24;;;;;;;38.03;31.35;;;15.60;93.80;;;;;;4978576;28;20100;-72
2022/09/14 05:45:51;;;;;;;37.42;31.00;;;15.60;93.80;;;;;;4975788;28;20069;-73
2022/09/14 05:48:16;;;;;;;37.17;31.10;;;15.60;93.80;;;;;;4980716;28;20042;-72
2022/09/14 05:50:42;;;;;;;38.08;32.80;;;15.70;93.80;;;;;;4972505;28;20049;-72
2022/09/14 05:53:08;;;;;;;36.90;31.10;;;15.60;93.70;;;;;;4976375;28;20045;-72
2022/09/14 05:55:34;;;;;;;37.85;32.22;;;15.70;93.70;;;;;;4972995;28;20073;-73
2022/09/14 05:57:59;;;;;;;34.97;31.00;;;15.70;93.70;;;;;;4973442;28;20078;-72
2022/09/14 06:00:26;;;;;;;38.40;31.55;;;15.60;93.60;;;;;;4971340;28;20138;-72
2022/09/14 06:02:53;;;;;;;36.60;31.33;;;15.60;93.60;;;;;;4970656;28;20046;-72
2022/09/14 06:05:20;;;;;;;35.63;31.08;;;15.60;93.70;;;;;;4971497;28;20298;-73
2022/09/14 06:07:51;;;;;;;39.47;33.08;;;15.70;93.70;;;;;;4975473;28;20108;-72
2022/09/14 06:10:20;;;;;;;37.80;30.92;;;15.70;93.70;;;;;;4970762;28;20356;-72
2022/09/14 06:12:46;;;;;;;38.08;31.55;;;15.70;93.60;;;;;;4975053;28;20498;-73
2022/09/14 06:15:13;;;;;;;39.65;32.40;;;15.70;93.70;;;;;;4978998;28;20043;-73
2022/09/14 06:17:39;;;;;;;38.67;30.92;;;15.70;93.70;;;;;;4982984;28;20503;-72
2022/09/14 06:20:08;;;;;;;35.83;29.23;;;15.70;93.70;;;;;;4980979;28;20447;-73
2022/09/14 06:22:34;;;;;;;37.20;30.73;;;15.80;93.70;;;;;;4976441;28;20542;-73
2022/09/14 06:25:00;;;;;;;37.22;30.02;;;15.80;93.70;;;;;;4981020;28;20046;-73
2022/09/14 06:27:26;;;;;;;32.70;28.25;;;15.80;93.70;;;;;;4966376;28;20038;-73
2022/09/14 06:29:53;;;;;;;35.90;29.88;;;15.80;93.70;;;;;;4958972;28;20039;-72
2022/09/14 06:32:22;;;;;;;37.20;28.70;;;15.80;93.50;;;;;;4961001;28;20091;-73
2022/09/14 06:34:48;;;;;;;31.85;27.17;;;15.80;93.50;;;;;;4959403;28;20098;-72
2022/09/14 06:37:14;;;;;;;32.75;28.17;;;15.80;93.40;;;;;;4958265;28;20038;-72
2022/09/14 06:39:40;;;;;;;34.58;27.48;;;15.80;93.40;;;;;;4960509;28;20126;-72
2022/09/14 06:42:06;;;;;;;34.08;27.48;;;15.80;93.40;;;;;;4958657;28;20046;-73
2022/09/14 06:44:32;;;;;;;34.17;27.60;;;15.80;93.30;;;;;;4958294;28;20035;-73
2022/09/14 06:46:58;;;;;;;32.88;28.85;;;15.80;93.30;;;;;;4958096;28;20035;-73
2022/09/14 06:49:24;;;;;;;33.05;26.42;;;15.90;93.20;;;;;;4958532;28;20042;-73
2022/09/14 06:51:49;;;;;;;34.50;25.95;;;15.80;93.20;;;;;;4959108;28;20392;-73
2022/09/14 06:54:17;;;;;;;32.25;26.35;;;15.80;93.30;;;;;;4961155;28;20047;-72
2022/09/14 06:56:44;;;;;;;33.63;25.58;;;15.80;93.30;;;;;;4963672;28;20039;-72
2022/09/14 06:59:13;;;;;;;33.42;25.90;;;15.80;93.30;;;;;;4965949;28;20066;-71
2022/09/14 07:01:40;;;;;;;33.70;27.20;;;15.90;93.30;;;;;;4964992;28;20605;-72
2022/09/14 07:04:06;;;;;;;30.73;25.50;;;15.90;93.30;;;;;;4966204;28;20066;-72
2022/09/14 07:06:38;;;;;;;28.00;24.60;;;15.90;93.30;;;;;;4965166;28;20046;-72
2022/09/14 07:09:04;;;;;;;30.58;24.23;;;15.90;93.30;;;;;;4959346;28;20502;-72
2022/09/14 07:11:31;;;;;;;30.38;24.83;;;15.90;93.20;;;;;;4963067;28;20043;-73
2022/09/14 07:13:57;;;;;;;29.83;25.83;;;15.90;93.30;;;;;;4963010;28;20063;-73
2022/09/14 07:16:27;;;;;;;30.27;26.13;;;15.90;93.30;;;;;;4962420;28;20041;-73
2022/09/14 07:18:54;;;;;;;29.73;24.10;;;16.00;93.40;;;;;;4957879;28;20035;-72
2022/09/14 07:21:21;;;;;;;28.13;23.90;;;16.00;93.30;;;;;;4964091;28;20067;-73
2022/09/14 07:23:47;;;;;;;30.02;24.70;;;16.00;93.30;;;;;;4962946;28;20046;-74
2022/09/14 07:26:19;;;;;;;26.45;22.95;;;16.00;93.20;;;;;;4964537;28;20035;-74
2022/09/14 07:28:48;;;;;;;26.45;22.90;;;15.90;93.20;;;;;;4965889;28;20054;-72
2022/09/14 07:31:24;;;;;;;24.85;21.88;;;16.00;93.30;;;;;;4984493;28;20235;-73
2022/09/14 07:33:57;;;;;;;27.17;22.40;;;16.00;93.20;;;;;;4985196;28;20109;-73
2022/09/14 07:36:25;;;;;;;27.15;23.63;;;15.90;93.10;;;;;;4984429;28;20165;-73
2022/09/14 07:38:51;;;;;;;25.02;22.00;;;15.90;93.10;;;;;;4983919;28;20042;-72
2022/09/14 07:41:17;;;;;;;24.80;22.02;;;15.90;93.10;;;;;;4984236;28;20038;-74
2022/09/14 07:43:43;;;;;;;23.60;20.85;;;15.90;93.10;;;;;;4985980;28;20405;-72
2022/09/14 07:46:08;;;;;;;24.63;21.02;;;15.90;93.00;;;;;;4985875;28;20597;-72
2022/09/14 07:48:35;;;;;;;23.23;19.88;;;15.90;93.10;;;;;;4981324;28;20384;-73
2022/09/14 07:51:09;;;;;;;25.52;20.77;;;15.80;93.20;;;;;;4982564;28;20081;-73
2022/09/14 07:53:37;;;;;;;24.63;21.27;;;15.80;93.10;;;;;;4983516;28;20497;-73
2022/09/14 07:56:05;;;;;;;24.48;20.88;;;15.80;93.20;;;;;;4978933;28;20379;-73
2022/09/14 07:58:31;;;;;;;24.80;21.02;;;15.80;93.30;;;;;;4982200;28;20073;-74
2022/09/14 08:01:01;;;;;;;26.58;21.55;;;15.90;93.30;;;;;;4982679;28;20062;-71
2022/09/14 08:03:28;;;;;;;25.83;20.95;;;15.80;93.30;;;;;;4964240;28;20047;-71
2022/09/14 08:06:02;;;;;;;27.55;21.52;;;15.80;93.40;;;;;;4966109;28;20649;-71
2022/09/14 08:08:29;;;;;;;25.02;19.70;;;15.80;93.50;;;;;;4978183;28;20482;-72
2022/09/14 08:11:03;;;;;;;24.42;21.25;;;15.80;93.60;;;;;;4985632;28;20038;-71
2022/09/14 08:13:29;;;;;;;22.63;18.80;;;15.90;93.70;;;;;;4962035;28;20128;-70
2022/09/14 08:15:59;;;;;;;24.52;18.67;;;15.90;93.60;;;;;;4964764;28;20042;-71
2022/09/14 08:18:25;;;;;;;23.23;18.63;;;15.80;93.60;;;;;;4955439;28;20053;-69
2022/09/14 08:20:52;;;;;;;24.88;19.33;;;15.80;93.50;;;;;;4978019;28;20049;-70
2022/09/14 08:23:17;;;;;;;24.05;19.55;;;15.80;93.70;;;;;;4989185;28;20050;-73
2022/09/14 08:25:43;;;;;;;22.95;19.00;;;15.80;93.70;;;;;;4985792;28;20109;-72
2022/09/14 08:28:09;;;;;;;21.33;17.52;;;15.80;93.70;;;;;;4983458;28;20038;-71
2022/09/14 08:30:34;;;;;;;19.80;17.02;;;15.90;93.70;;;;;;4981310;28;20141;-73
2022/09/14 08:33:00;;;;;;;19.58;16.85;;;15.70;93.50;;;;;;4982518;28;20046;-72
2022/09/14 08:35:26;;;;;;;21.05;17.73;;;15.80;93.70;;;;;;4981358;28;20649;-71
2022/09/14 08:37:52;;;;;;;19.08;15.95;;;15.90;93.70;;;;;;4981978;28;20419;-71
2022/09/14 08:40:18;;;;;;;20.77;17.30;;;15.80;93.50;;;;;;4981603;28;20379;-71
2022/09/14 08:42:45;;;;;;;19.50;16.15;;;15.70;93.50;;;;;;4981603;28;20049;-72
2022/09/14 08:45:15;;;;;;;21.70;17.48;;;15.70;93.60;;;;;;4980569;28;20490;-72
2022/09/14 08:47:42;;;;;;;21.38;18.30;;;15.70;93.90;;;;;;4978604;28;20399;-72
2022/09/14 08:50:19;;;;;;;21.25;17.85;;;15.80;94.10;;;;;;4979733;28;20027;-71
2022/09/14 08:52:53;;;;;;;20.38;17.65;;;16.00;94.20;;;;;;4985369;28;20038;-71
2022/09/14 08:55:39;;;;;;;22.23;18.73;;;16.10;94.00;;;;;;4981441;28;20177;-72
2022/09/14 08:58:10;;;;;;;20.85;17.52;;;16.20;93.80;;;;;;4981934;28;20489;-72
2022/09/14 09:01:05;;;;;;;19.35;16.80;;;16.10;93.30;;;;;;4982243;28;20046;-73
2022/09/14 09:03:51;;;;;;;19.52;16.35;;;16.20;93.20;;;;;;4975080;28;20581;-72
2022/09/14 09:06:28;;;;;;;18.85;16.90;;;16.10;93.10;;;;;;4982315;28;20363;-73
2022/09/14 09:09:04;;;;;;;18.40;16.38;;;16.10;93.10;;;;;;4978693;28;20740;-73
2022/09/14 09:11:40;;;;;;;18.58;16.40;;;16.20;93.10;;;;;;4980077;28;20066;-73
2022/09/14 09:14:18;;;;;;;17.50;15.05;;;16.20;93.20;;;;;;4978923;28;20066;-72
2022/09/14 09:16:46;;;;;;;16.02;14.05;;;16.30;93.30;;;;;;4979868;28;20098;-74
2022/09/14 09:19:22;;;;;;;17.63;14.18;;;16.40;93.00;;;;;;4979055;28;20053;-74
2022/09/14 09:21:48;;;;;;;15.93;13.23;;;16.40;92.90;;;;;;4981736;28;20034;-72
2022/09/14 09:24:16;;;;;;;16.13;13.32;;;16.50;92.80;;;;;;4980855;28;20449;-72
2022/09/14 09:26:42;;;;;;;14.95;13.35;;;16.40;92.40;;;;;;4981294;28;20501;-75
2022/09/14 09:29:10;;;;;;;16.75;13.75;;;16.40;92.60;;;;;;4982074;28;20034;-73
2022/09/14 09:31:43;;;;;;;15.57;13.48;;;16.40;92.40;;;;;;4981058;28;20068;-74
2022/09/14 09:34:15;;;;;;;15.75;12.80;;;16.50;92.40;;;;;;4981866;28;20703;-73
2022/09/14 09:36:45;;;;;;;14.45;12.32;;;16.40;92.10;;;;;;4980370;28;20041;-74
2022/09/14 09:39:11;;;;;;;15.07;13.23;;;16.40;92.10;;;;;;4983173;28;20402;-73
2022/09/14 09:41:57;;;;;;;15.13;13.52;;;16.40;91.90;;;;;;4982792;28;20045;-75
2022/09/14 09:44:23;;;;;;;15.80;13.48;;;16.40;92.00;;;;;;4969094;28;20066;-74
2022/09/14 09:47:00;;;;;;;14.50;12.95;;;16.30;92.10;;;;;;4964968;28;20129;-73
2022/09/14 09:49:38;;;;;;;16.58;13.85;;;16.40;92.00;;;;;;4984297;28;20046;-73
2022/09/14 09:52:09;;;;;;;15.52;13.00;;;16.50;92.20;;;;;;4984805;28;20555;-73
2022/09/14 09:54:36;;;;;;;15.82;14.13;;;16.50;92.00;;;;;;4980691;28;20047;-74
2022/09/14 09:57:06;;;;;;;17.10;15.15;;;16.40;91.90;;;;;;4983775;28;20062;-75
2022/09/14 09:59:39;;;;;;;16.20;14.50;;;16.40;92.10;;;;;;4983726;28;20035;-73
2022/09/14 10:02:24;;;;;;;17.48;15.68;;;16.50;92.30;;;;;;4984371;28;20434;-75
2022/09/14 10:05:33;;;;;;;18.10;16.13;;;16.50;92.10;;;;;;4983993;28;20205;-75
2022/09/14 10:08:05;;;;;;;18.63;16.63;;;16.50;92.30;;;;;;4977727;28;20161;-76
2022/09/14 10:10:33;;;;;;;18.55;16.35;;;16.40;92.00;;;;;;4977287;28;20482;-75
2022/09/14 10:13:00;;;;;;;16.88;15.07;;;16.50;92.20;;;;;;4982957;28;20042;-76
2022/09/14 10:15:33;;;;;;;16.33;14.63;;;16.40;92.10;;;;;;4975072;28;20502;-74
2022/09/14 10:18:11;;;;;;;15.93;13.90;;;16.40;92.40;;;;;;4963308;28;20379;-76
2022/09/14 10:21:06;;;;;;;16.58;15.00;;;16.50;92.10;;;;;;4955190;28;20509;-75
2022/09/14 10:23:35;;;;;;;17.25;15.52;;;16.50;92.00;;;;;;4983841;28;20452;-75
2022/09/14 10:26:13;;;;;;;17.10;15.30;;;16.60;92.20;;;;;;4981869;28;20046;-75
2022/09/14 10:28:49;;;;;;;16.33;14.63;;;16.50;91.70;;;;;;4983148;28;20046;-75
2022/09/14 10:31:23;;;;;;;17.05;15.35;;;16.50;92.00;;;;;;4983357;28;20391;-75
2022/09/14 10:33:54;;;;;;;16.02;14.35;;;16.50;92.00;;;;;;4983498;28;20042;-75
2022/09/14 10:36:29;;;;;;;17.23;14.90;;;16.50;91.80;;;;;;4981822;28;20454;-75
2022/09/14 10:39:17;;;;;;;16.55;14.80;;;16.40;91.80;;;;;;4979922;28;20357;-76
2022/09/14 10:41:59;;;;;;;16.17;14.57;;;16.30;91.80;;;;;;4960362;28;20050;-76
2022/09/14 10:44:24;;;;;;;14.90;13.38;;;16.40;92.10;;;;;;4955558;28;20050;-75
2022/09/14 10:47:35;;;;;;;16.23;14.73;;;16.40;91.90;;;;;;4955273;28;20042;-74
2022/09/14 10:50:31;;;;;;;16.08;14.30;;;16.50;92.00;;;;;;4951275;28;20035;-74
2022/09/14 10:53:20;;;;;;;17.50;15.75;;;16.30;91.80;;;;;;4955134;28;20074;-75
2022/09/14 10:55:59;;;;;;;17.17;15.48;;;16.40;92.00;;;;;;4956093;28;20205;-74
2022/09/14 10:58:33;;;;;;;16.63;14.75;;;16.40;92.00;;;;;;4953663;28;20043;-76
2022/09/14 11:01:07;;;;;;;17.55;15.85;;;16.30;92.00;;;;;;4958743;28;20486;-74
2022/09/14 11:03:54;;;;;;;16.73;15.13;;;16.30;91.90;;;;;;4955414;28;20558;-74
2022/09/14 11:06:44;;;;;;;17.13;15.55;;;16.30;92.00;;;;;;4997219;28;20035;-74
2022/09/14 11:09:25;;;;;;;16.85;15.25;;;16.20;91.90;;;;;;4979251;28;20034;-76
2022/09/14 11:12:12;;;;;;;17.13;15.23;;;16.30;92.10;;;;;;4985313;28;20522;-74
2022/09/14 11:14:40;;;;;;;18.58;16.60;;;16.30;92.10;;;;;;4981837;28;20058;-74
2022/09/14 11:17:18;;;;;;;18.52;16.73;;;16.30;92.00;;;;;;4978894;28;20387;-75
2022/09/14 11:19:51;;;;;;;19.63;17.60;;;16.30;91.80;;;;;;4979152;28;20386;-76
2022/09/14 11:22:52;;;;;;;19.60;17.70;;;16.10;92.00;;;;;;4973628;28;20371;-77
2022/09/14 11:25:26;;;;;;;19.67;17.88;;;16.20;92.10;;;;;;4980757;28;20071;-76
2022/09/14 11:27:57;;;;;;;20.15;18.33;;;16.20;92.30;;;;;;4981971;28;20042;-76
2022/09/14 11:30:33;;;;;;;18.50;16.73;;;16.20;92.00;;;;;;4981252;28;20100;-75
2022/09/14 11:33:15;;;;;;;19.67;17.88;;;16.10;92.00;;;;;;4978941;28;20501;-77
2022/09/14 11:35:49;;;;;;;20.40;18.55;;;16.10;92.10;;;;;;4963604;28;20126;-74
2022/09/14 11:38:21;;;;;;;21.52;19.52;;;16.10;92.10;;;;;;4961622;28;20031;-76
2022/09/14 11:41:04;;;;;;;20.27;18.38;;;16.10;92.40;;;;;;4953142;28;20039;-74
2022/09/14 11:43:41;;;;;;;20.45;18.45;;;16.10;92.10;;;;;;4953386;28;20055;-73
2022/09/14 11:46:11;;;;;;;20.25;18.48;;;16.10;92.00;;;;;;4953011;28;20043;-74
2022/09/14 11:48:55;;;;;;;20.08;18.27;;;16.20;91.90;;;;;;4953557;28;20330;-75
2022/09/14 11:51:27;;;;;;;19.27;17.45;;;16.10;91.60;;;;;;4958647;28;20042;-76
2022/09/14 11:53:53;;;;;;;20.63;18.73;;;16.10;92.00;;;;;;4971313;28;20046;-77
2022/09/14 11:56:25;;;;;;;19.63;17.83;;;16.00;92.20;;;;;;4976362;28;20034;-76
2022/09/14 11:58:56;;;;;;;18.77;16.92;;;16.00;92.00;;;;;;4977701;28;20038;-76
2022/09/14 12:01:31;;;;;;;20.00;18.10;;;16.00;92.10;;;;;;4975777;28;20039;-76
2022/09/14 12:04:00;;;;;;;19.45;17.50;;;16.00;92.10;;;;;;4974055;28;20127;-77
2022/09/14 12:06:34;;;;;;;19.95;18.15;;;16.10;92.10;;;;;;4989118;28;20057;-77
2022/09/14 12:09:19;;;;;;;18.85;17.02;;;16.10;92.10;;;;;;4995659;28;20243;-77
2022/09/14 12:11:48;;;;;;;19.98;18.00;;;16.20;92.10;;;;;;4979824;28;20049;-77
2022/09/14 12:14:23;;;;;;;19.48;17.55;;;16.20;92.00;;;;;;4976560;28;20561;-78
2022/09/14 12:17:04;;;;;;;;;;;16.20;91.80;;;;;;4976980;28;20546;-77
2022/09/14 12:19:30;;;;;;;21.08;19.08;;;16.30;91.80;;;;;;4967805;28;20182;-79
2022/09/14 12:22:15;;;;;;;22.08;19.88;;;16.20;92.00;;;;;;4978174;28;20486;-78
2022/09/14 12:24:41;;;;;;;19.20;17.40;;;16.20;92.10;;;;;;4971020;28;20054;-77
2022/09/14 12:27:20;;;;;;;20.65;18.63;;;16.40;92.10;;;;;;4976521;28;20041;-77
2022/09/14 12:29:46;;;;;;;21.38;19.30;;;16.50;91.80;;;;;;4976218;28;20474;-77
2022/09/14 12:32:39;;;;;;;24.50;21.98;;;16.60;91.80;;;;;;4961757;28;20553;-77
2022/09/14 12:35:31;;;;;;;22.40;20.15;;;16.60;90.90;;;;;;4942642;28;20750;-77
2022/09/14 12:37:56;;;;;;;22.30;20.10;;;16.60;90.80;;;;;;4958043;28;20086;-73
2022/09/14 12:40:35;;;;;;;22.88;20.77;;;16.60;90.80;;;;;;4950624;28;20123;-73
2022/09/14 12:43:34;;;;;;;25.10;22.60;;;16.50;90.60;;;;;;4948299;28;20035;-73
2022/09/14 12:46:18;;;;;;;25.48;23.08;;;16.40;91.10;;;;;;4970847;28;20039;-73
2022/09/14 12:48:47;;;;;;;26.95;24.13;;;16.40;91.30;;;;;;4961687;28;20121;-73
2022/09/14 12:51:28;;;;;;;24.05;21.65;;;16.50;91.50;;;;;;4962423;28;20140;-74